Aviation Digital Data Service (ADDS)

Output produced by METARs form (2310 UTC 15 August 2018)
found at http://www.aviationweather.gov/adds/metars/
 
KHBG 151731Z 1518/1618 11004KT P6SM SCT040 
     FM152000 12005KT P6SM VCTS SCT050CB SCT250 
     FM160000 16003KT P6SM SKC 
     FM161000 00000KT 5SM BR FEW002 
     FM161400 VRB03KT P6SM SKC
       
KHDN 151735Z 1518/1618 VRB03KT P6SM SKC 
     FM160000 30009KT P6SM FEW150 SCT250 
     FM160300 VRB04KT P6SM FEW250
       
KHIE 151724Z 1518/1618 28004KT P6SM SCT025 
     FM160700 00000KT 1/2SM FG OVC003 
     FM161200 31008KT P6SM SCT040
       
TAF AMD KHIF 152148Z 1521/1703 28009KT 9999 FEW200 QNH3006INS 
     TEMPO 1523/1603 25015G25KT 
     BECMG 1602/1603 10010G15KT 9999 SCT200 QNH3008INS 
     BECMG 1617/1618 27009KT 9999 SKC QNH3018INS 
     BECMG 1702/1703 10012KT 9999 SKC QNH3018INS TX34/1522Z TN19/1612Z
       
KHIO 151720Z 1518/1618 VRB02KT 3SM FU BKN040 
     FM152100 34006KT 4SM FU BKN050 
     FM160400 VRB03KT P6SM SCT050
       
KHKS 151731Z 1518/1618 VRB04KT P6SM SCT050
       
KHKY 151728Z 1518/1618 20004KT P6SM SCT050 BKN200 
     FM160100 VRB02KT P6SM SCT060 
     FM161500 22004KT P6SM FEW050 BKN150
       
KHLG 151732Z 1518/1618 VRB04KT P6SM SCT030 BKN150 
     FM160900 18003KT P6SM BKN050 
     FM161400 17005KT P6SM VCTS BKN090CB
       
KHLN 151735Z 1518/1618 35005KT P6SM SKC
       
TAF AMD KHMN 152112Z 1521/1702 24012KT 9999 SCT120 SCT200 QNH3002INS 
     TEMPO 1521/1601 VRB25G35KT 8000 -TSRA BKN080CB BKN120 BKN200 
     BECMG 1600/1601 20012KT 9999 SCT120 SCT200 QNH3009INS 
     TEMPO 1601/1603 21009KT VCTS BKN120CB 
     BECMG 1602/1603 15009KT 9999 SCT120 SCT200 QNH3004INS 
     TEMPO 1620/1701 VRB20G30KT 8000 -TSRA BKN080CB BKN120 BKN200 TX39/1522Z TN21/1613Z
       
KHND 151741Z 1518/1618 VRB06KT P6SM FEW150 
     FM151900 19010KT P6SM VCTS FEW120CB 
     TEMPO 1520/1524 VRB20G30KT -TSRA SCT100CB BKN200 
     FM160300 19011KT P6SM FEW150 SCT200
       
KHOB 151720Z 1518/1618 VRB05KT P6SM SCT120 
     FM151900 17009KT P6SM SCT150
       
KHON 151721Z 1518/1618 14004KT P6SM VCSH OVC025 
     FM152000 13004KT 6SM SHRA VCTS SCT015CB BKN030 
     FM160600 22003KT 6SM SHRA OVC040 
     FM160900 27004KT P6SM VCSH BKN040 
     FM161200 36004KT P6SM BKN080
       
TAF KHOP 151600Z 1516/1622 19012KT 9999 SCT050 BKN100 QNH3000INS 
     BECMG 1517/1518 22010G15KT 9999 BKN060 QNH2995INS 
     TEMPO 1521/1524 22012G20KT 6000 -TSRA OVC040CB 
     BECMG 1523/1524 VRB06KT 9999 BKN050 QNH2995INS 
     BECMG 1602/1603 VRB06KT 8000 -SHRA SCT030 BKN040 QNH2997INS 
     BECMG 1613/1614 22012G18KT 9999 NSW FEW015 BKN025 QNH2997INS TX32/1518Z TN22/1609Z
       
KHOT 151720Z 1518/1618 21008KT P6SM SCT035 BKN250 
     FM160000 19005KT P6SM SCT100 BKN250 
     FM160600 19004KT P6SM VCTS SCT030CB BKN100 
     TEMPO 1609/1613 4SM BR
       
KHOU 152134Z 1522/1618 15013KT P6SM VCTS SCT050CB BKN250 
     TEMPO 1522/1523 5SM -TSRA BKN040CB 
     FM152300 15006KT P6SM SCT250 
     FM161500 21007KT P6SM SCT035
       
KHPN 152220Z 1522/1618 25005KT P6SM FEW050 FEW250 
     FM160000 VRB03KT P6SM FEW050 FEW250 
     FM161300 30007KT P6SM FEW050 FEW250 AMD NOT SKED
       
KHQM 152107Z 1521/1618 22007KT 3SM HZ FU OVC010 
     FM160100 24010KT P6SM FEW005 SCT040 
     FM160300 22007KT 5SM BR OVC004 
     FM160600 22007KT 4SM BR OVC002 
     FM161100 23005KT 1SM BR OVC002
       
KHRL 151720Z 1518/1618 17019G26KT P6SM SCT045 
     FM160100 15014G20KT P6SM FEW035 
     FM160900 15009KT P6SM FEW025 
     FM161400 17016G21KT P6SM SCT035
       
KHRO 151720Z 1518/1618 22012G20KT P6SM VCTS SCT030CB BKN080 
     FM160000 21007KT P6SM VCSH SCT040 BKN100 
     FM160900 22004KT P6SM SCT025 BKN040 
     TEMPO 1609/1613 4SM BR BKN025
       
TAF KHST 151600Z 1516/1622 11009KT 8000 -SHRA VCTS SCT020 BKN030CB QNH3008INS 
     BECMG 1521/1522 09009KT 9999 NSW FEW025 QNH3005INS 
     BECMG 1616/1617 12012KT 9999 SCT025 QNH3010INS TX33/1518Z TN25/1609Z
       
KHSV 151720Z 1518/1618 21006KT P6SM FEW050 BKN150 
     FM160000 VRB02KT P6SM FEW100 
     FM161500 21008KT P6SM SCT250
       
KHTS 152147Z 1522/1618 23004KT P6SM SCT050 SCT200 
     TEMPO 1522/1524 6SM -TSRA BKN025CB 
     FM160600 00000KT 6SM BR BKN150 
     FM161300 27006KT P6SM BKN050
       
KHUF 151905Z 1519/1618 15009KT P6SM -RA FEW015 SCT045 BKN110 
     TEMPO 1519/1523 4SM +SHRA OVC025 
     FM160200 17007KT 6SM SHRA VCTS OVC080CB 
     FM160600 18007KT 6SM -SHRA VCTS OVC040CB 
     FM161100 19006KT 6SM -SHRA VCTS OVC010CB
       
KHUM 151741Z 1518/1618 VRB04KT P6SM VCTS SCT035CB 
     FM160200 00000KT P6SM SCT250 
     FM161500 32003KT P6SM SCT250
       
KHUT 151720Z 1518/1618 35010KT P6SM OVC035 
     FM151900 35010KT P6SM SCT040 
     FM152300 01006KT P6SM FEW250 
     FM160200 VRB03KT P6SM FEW250 
     FM161600 16006KT P6SM SCT250
       
KHVR 151735Z 1518/1618 23009KT P6SM SKC
       
KHYA 151738Z 1518/1618 02004KT P6SM FEW007 BKN060 
     FM151900 30006KT P6SM BKN100 
     FM152100 24007KT P6SM SCT035 
     FM160000 24007KT P6SM FEW250 
     FM161000 27008KT P6SM FEW250
       
KHYR 151720Z 1518/1618 03004KT P6SM FEW030 
     FM160600 00000KT 4SM BR SKC 
     FM160900 00000KT 1/2SM FG SCT001 SCT250 
     FM161400 00000KT 2SM BR SCT003 
     FM161600 VRB02KT 4SM BR SCT007
       
KHYS 151728Z 1518/1618 13008KT P6SM FEW120
       
KHUL 152240Z 1523/1618 VRB03KT P6SM VCSH BKN070 
     FM160200 22004KT 5SM BR SCT060 
     FM160400 29004KT P6SM BKN027 
     FM160600 32007KT P6SM SCT035